Data for 09/03/2007

Time Sea-Level Adjusted Pressure Absolute Pressure Temperature Relative Humidity Dew Point   
(mb) (inHg) (mb) (inHg) (C) (F) (%) (C) (F)
00:05 1019 30.09 848 25.04 21.1 70 35 5.1 41.2
00:10 1019 30.09 848 25.04 20.9 69.5 32 3.7 38.7
00:15 1019 30.09 848 25.04 20.7 69.3 33 4.1 39.4
00:20 1019 30.09 848 25.04 21.3 70.4 30 3.2 37.8
00:25 1019 30.09 848 25.04 21.5 70.7 30 3.2 37.8
00:30 1019 30.09 848 25.04 21.8 71.2 29 3.1 37.6
00:35 1019 30.09 848 25.04 21.8 71.3 31 3.9 39
00:40 1019 30.09 848 25.04 21.7 71 32 4.3 39.7
00:45 1019 30.09 848 25.04 21.7 71.1 33 4.9 40.9
00:50 1019 30.09 848 25.04 21.4 70.5 31 4 39.1
00:55 1019 30.09 848 25.04 21.1 70.1 32 4 39.2
01:00 1019 30.09 848 25.04 21 69.8 31 3.5 38.3
01:05 1019 30.09 849 25.07 21.2 70.1 31 3.4 38.1
01:10 1019 30.09 849 25.07 21.4 70.4 30 3.4 38.1
01:15 1019 30.09 849 25.07 21.4 70.5 31 3.6 38.5
01:20 1019 30.09 849 25.07 21 69.8 33 4.5 40.1
01:25 1020 30.12 849 25.07 20.5 68.9 35 4.8 40.6
01:30 1020 30.12 849 25.07 20.2 68.3 35 4.2 39.6
01:35 1020 30.12 849 25.07 19.9 67.8 37 4.9 40.9
01:40 1020 30.12 849 25.07 19.7 67.5 35 4 39.1
01:45 1020 30.12 849 25.07 19.9 67.8 34 3.7 38.6
01:50 1020 30.12 849 25.07 20.2 68.3 33 3.6 38.4
01:55 1020 30.12 849 25.07 20.3 68.6 34 4.1 39.5
02:00 1020 30.12 849 25.07 20.2 68.3 33 3.7 38.6
02:05 1020 30.12 849 25.07 19.9 67.8 37 5.1 41.1
02:10 1020 30.12 849 25.07 19.7 67.4 38 4.9 40.9
02:15 1020 30.12 849 25.07 19.5 67 36 4.1 39.4
02:20 1020 30.12 849 25.07 18.9 66.1 40 5.2 41.4
02:25 1020 30.12 849 25.07 18.8 65.9 37 4.1 39.4
02:30 1020 30.12 849 25.07 18.7 65.6 43 5.8 42.5
02:35 1020 30.12 849 25.07 18.4 65.1 41 4.9 40.7
02:40 1020 30.12 849 25.07 17.6 63.6 42 4.7 40.4
02:45 1020 30.12 849 25.07 17.3 63.2 43 4.8 40.7
02:50 1020 30.12 849 25.07 17.4 63.3 43 4.6 40.4
02:55 1020 30.12 849 25.07 17.6 63.6 42 4.7 40.5
03:00 1020 30.12 849 25.07 17.1 62.7 44 4.9 40.8
03:05 1020 30.12 849 25.07 17.1 62.8 42 4.2 39.5
03:10 1020 30.12 849 25.07 17.5 63.5 40 4 39.3
03:15 1020 30.12 849 25.07 18 64.3 39 4 39.2
03:20 1020 30.12 849 25.07 18.4 65 37 3.5 38.3
03:25 1020 30.12 849 25.07 18.6 65.5 37 3.8 38.9
03:30 1020 30.12 849 25.07 18.6 65.4 37 3.9 38.9
03:35 1020 30.12 849 25.07 18.3 65 38 4 39.2
03:40 1020 30.12 849 25.07 18.1 64.6 39 4.2 39.5
03:45 1020 30.12 849 25.07 17.7 63.9 40 4.1 39.3
03:50 1020 30.12 849 25.07 17.4 63.3 40 3.9 39
03:55 1020 30.12 849 25.07 17.3 63.1 40 3.6 38.4
04:00 1020 30.12 849 25.07 17.5 63.5 40 3.8 38.8
04:05 1020 30.12 849 25.07 18.1 64.6 37 3.2 37.8
04:10 1020 30.12 849 25.07 18.3 65 37 3.5 38.3
04:15 1020 30.12 849 25.07 18.4 65.1 36 3.1 37.6
04:20 1020 30.12 849 25.07 18.4 65.2 36 3.3 38
04:25 1020 30.12 849 25.07 18.4 65.1 36 3.2 37.8
04:30 1020 30.12 849 25.07 18.4 65.1 36 3.1 37.6
04:35 1020 30.12 849 25.07 18.5 65.3 37 3.6 38.6
04:40 1020 30.12 849 25.07 18.6 65.4 35 3 37.3
04:45 1020 30.12 849 25.07 18.7 65.6 40 4.9 40.9
04:50 1020 30.12 849 25.07 18.7 65.6 35 3.2 37.8
04:55 1020 30.12 850 25.1 18.5 65.2 43 5.8 42.5
05:00 1020 30.12 849 25.07 18.4 65.1 36 3.4 38.1
05:05 1020 30.12 850 25.1 18.5 65.3 35 3.1 37.6
05:10 1020 30.12 850 25.1 18.3 64.9 40 4.5 40.1
05:15 1020 30.12 850 25.1 17.8 64.1 40 4.1 39.4
05:20 1020 30.12 850 25.1 17.5 63.5 47 6.3 43.3
05:25 1020 30.12 850 25.1 17 62.5 45 5 41.1
05:30 1020 30.12 850 25.1 16.6 61.8 52 6.7 44.1
05:35 1021 30.15 850 25.1 16.1 61 46 4.7 40.5
05:40 1021 30.15 850 25.1 15.9 60.7 48 5 41
05:45 1021 30.15 850 25.1 15.8 60.5 48 4.9 40.7
05:50 1021 30.15 850 25.1 15.6 60.1 54 6.5 43.6
05:55 1021 30.15 850 25.1 15.5 59.9 46 3.9 39
06:00 1021 30.15 850 25.1 16.5 61.6 43 4.1 39.3
06:05 1021 30.15 850 25.1 16.8 62.2 45 4.7 40.5
06:10 1021 30.15 850 25.1 16.5 61.8 44 4.2 39.6
06:15 1021 30.15 850 25.1 16.4 61.4 44 4 39.2
06:20 1021 30.15 850 25.1 16.3 61.3 43 3.8 38.8
06:25 1021 30.15 850 25.1 16.2 61.2 44 4.1 39.3
06:30 1021 30.15 850 25.1 16.3 61.4 42 3.6 38.5
06:35 1021 30.15 850 25.1 16.8 62.2 41 3.5 38.3
06:40 1021 30.15 850 25.1 17.1 62.8 40 3.4 38.1
06:45 1021 30.15 850 25.1 17.1 62.9 40 3.6 38.5
06:50 1021 30.15 850 25.1 16.9 62.3 46 5.4 41.6
06:55 1021 30.15 850 25.1 16.9 62.5 44 4.6 40.3
07:00 1021 30.15 850 25.1 17 62.5 40 3.5 38.3
07:05 1021 30.15 850 25.1 16.9 62.4 44 4.6 40.3
07:10 1021 30.15 850 25.1 16.7 62.1 42 4 39.2
07:15 1021 30.15 850 25.1 16.7 62.1 42 3.7 38.7
07:20 1021 30.15 850 25.1 16.7 62.1 42 3.7 38.6
07:25 1021 30.15 850 25.1 17 62.6 39 3.2 37.8
07:30 1021 30.15 850 25.1 17.2 62.9 42 4.2 39.5
07:35 1021 30.15 850 25.1 17 62.6 41 3.8 38.8
07:40 1021 30.15 850 25.1 17 62.5 46 5.3 41.6
07:45 1021 30.15 851 25.13 17 62.6 40 3.6 38.4
07:50 1021 30.15 851 25.13 17.2 62.9 41 3.9 39.1
07:55 1021 30.15 851 25.13 17.4 63.3 39 3.6 38.4
08:00 1021 30.15 851 25.13 17.5 63.5 39 3.7 38.6
08:05 1021 30.15 851 25.13 17.7 63.9 39 3.7 38.6
08:10 1022 30.18 851 25.13 18.1 64.6 35 2.7 36.9
08:15 1022 30.18 851 25.13 18.8 65.8 39 4.6 40.3
08:20 1022 30.18 851 25.13 18.6 65.5 41 5.4 41.7
08:25 1022 30.18 851 25.13 18.4 65 41 5 41
08:30 1022 30.18 851 25.13 18.2 64.8 46 6.5 43.8
08:35 1022 30.18 851 25.13 18.2 64.8 42 5.1 41.2
08:40 1022 30.18 851 25.13 18.1 64.5 45 6 42.8
08:45 1022 30.18 851 25.13 18.5 65.3 37 3.8 38.9
08:50 1022 30.18 851 25.13 18.9 66.1 40 5.3 41.5
08:55 1022 30.18 851 25.13 19.2 66.5 44 6.7 44.1
09:00 1022 30.18 851 25.13 19.5 67.2 38 5.1 41.2
09:05 1022 30.18 851 25.13 19.8 67.6 42 6.5 43.7
09:10 1022 30.18 851 25.13 20.3 68.5 37 5.4 41.8
09:15 1022 30.18 851 25.13 20.8 69.4 36 5.2 41.4
09:20 1022 30.18 851 25.13 21.7 71 34 5.2 41.3
09:25 1022 30.18 851 25.13 22.7 72.9 33 5.9 42.7
09:30 1022 30.18 851 25.13 23 73.4 33 5.9 42.6
09:35 1022 30.18 851 25.13 23.5 74.4 33 6.4 43.6
09:40 1022 30.18 851 25.13 23.8 74.9 33 6.9 44.4
09:45 1022 30.18 851 25.13 23.8 74.8 33 6.9 44.5
09:50 1022 30.18 851 25.13 24 75.2 32 6.6 43.9
09:55 1022 30.18 851 25.13 24.2 75.6 31 6.1 43
10:00 1022 30.18 851 25.13 24.3 75.7 30 6 42.7
10:05 1022 30.18 851 25.13 24 75.2 32 6.4 43.6
10:10 1022 30.18 851 25.13 24.6 76.2 29 5.6 42
10:15 1022 30.18 851 25.13 24.7 76.4 28 5.4 41.8
10:20 1022 30.18 851 25.13 25.2 77.3 28 5.5 41.9
10:25 1021 30.15 851 25.13 25.7 78.3 27 5.6 42.1
10:30 1021 30.15 851 25.13 26.2 79.1 27 6.1 43
10:35 1021 30.15 851 25.13 26.4 79.5 26 5.8 42.4
10:40 1021 30.15 851 25.13 26.2 79.1 25 5.1 41.2
10:45 1021 30.15 850 25.1 25.9 78.6 27 6 42.7
10:50 1021 30.15 850 25.1 26.2 79.2 26 5.6 42.1
10:55 1021 30.15 850 25.1 26.6 79.9 25 5.4 41.7
11:00 1021 30.15 850 25.1 26.2 79.1 26 5.6 42.1
11:05 1021 30.15 850 25.1 27 80.6 23 4.3 39.7
11:10 1021 30.15 850 25.1 26.8 80.2 25 5.6 42.1
11:15 1021 30.15 850 25.1 27.2 80.9 25 5.6 42.1
11:20 1021 30.15 850 25.1 27.9 82.2 24 5.9 42.6
11:25 1021 30.15 850 25.1 28 82.5 24 6 42.8
11:30 1021 30.15 850 25.1 28.1 82.7 24 6 42.7
11:35 1021 30.15 850 25.1 28.6 83.5 22 5.2 41.4
11:40 1021 30.15 850 25.1 28.9 83.9 22 5 41.1
11:45 1021 30.15 850 25.1 27.8 82 23 5.2 41.4
11:50 1021 30.15 850 25.1 27.4 81.3 23 4.8 40.6
11:55 1021 30.15 850 25.1 28.4 83.2 22 4.9 40.9
12:00 1021 30.15 850 25.1 28.7 83.7 22 5.2 41.3
12:05 1021 30.15 850 25.1 28.6 83.4 22 4.9 40.7
12:10 1021 30.15 850 25.1 28.4 83 22 4.6 40.4
12:15 1021 30.15 850 25.1 28.6 83.4 19 3.1 37.5
12:20 1021 30.15 850 25.1 29 84.2 20 3.9 39
12:25 1021 30.15 850 25.1 29.7 85.4 18 3.4 38.1
12:30 1021 30.15 850 25.1 30.3 86.6 18 4.1 39.3
12:35 1020 30.12 850 25.1 29 84.1 21 4.4 40
12:40 1020 30.12 850 25.1 28.5 83.4 19 3 37.4
12:45 1020 30.12 850 25.1 29 84.3 16 0.7 33.2
12:50 1020 30.12 850 25.1 29.4 84.9 14 -0.7 30.8
12:55 1020 30.12 849 25.07 29.6 85.3 14 -0.6 31
13:00 1020 30.12 849 25.07 29.8 85.6 14 -0.4 31.2
13:05 1020 30.12 849 25.07 30.1 86.1 14 -0.4 31.4
13:10 1020 30.12 849 25.07 30.5 86.9 12 -1.8 28.7
13:15 1020 30.12 849 25.07 30.8 87.4 12 -1.2 29.8
13:20 1020 30.12 849 25.07 30.4 86.7 12 -1.5 29.4
13:25 1020 30.12 849 25.07 30.5 86.9 13 -1 30.2
13:30 1020 30.12 849 25.07 30.1 86.2 12 -1.9 28.6
13:35 1020 30.12 849 25.07 30 86 12 -2.2 28.1
13:40 1020 30.12 849 25.07 30.9 87.5 12 -1.9 28.5
13:45 1020 30.12 849 25.07 31 87.8 11 -2 28.5
13:50 1020 30.12 849 25.07 31.3 88.3 11 -1.8 28.8
13:55 1020 30.12 849 25.07 31.1 88 12 -1.4 29.5
14:00 1020 30.12 849 25.07 31.6 88.8 11 -1.6 29
14:05 1020 30.12 849 25.07 30.8 87.4 12 -1.7 28.9
14:10 1019 30.09 849 25.07 31.1 88 11 -2.4 27.6
14:15 1019 30.09 849 25.07 31.1 87.9 11 -2 28.4
14:20 1019 30.09 849 25.07 31.1 88 11 -2.4 27.6
14:25 1019 30.09 848 25.04 31.2 88.1 12 -1.7 28.9
14:30 1019 30.09 848 25.04 31.5 88.7 10 -2.8 26.9
14:35 1019 30.09 848 25.04 31 87.8 12 -1.6 29.2
14:40 1019 30.09 848 25.04 31 87.9 12 -1.9 28.7
14:45 1019 30.09 848 25.04 31.2 88.2 11 -2.7 27.2
14:50 1019 30.09 848 25.04 30.6 87 11 -2.5 27.5
14:55 1019 30.09 848 25.04 31.2 88.1 11 -1.9 28.6
15:00 1019 30.09 848 25.04 31.8 89.2 10 -2.7 27.2
15:05 1019 30.09 848 25.04 31.1 88 11 -2 28.4
15:10 1019 30.09 848 25.04 31.5 88.7 11 -1.7 29
15:15 1018 30.06 848 25.04 32 89.6 11 -1.8 28.8
15:20 1018 30.06 848 25.04 32.1 89.8 11 -2.1 28.3
15:25 1018 30.06 848 25.04 31.3 88.3 11 -2.7 27.2
15:30 1018 30.06 847 25.01 31.6 88.8 10 -3 26.7
15:35 1018 30.06 847 25.01 31.7 89.1 11 -2.6 27.4
15:40 1018 30.06 847 25.01 32.4 90.2 11 -0.9 30.4
15:45 1018 30.06 847 25.01 32.7 90.9 11 -1.2 29.8
15:50 1018 30.06 847 25.01 32.9 91.2 10 -1.7 28.9
15:55 1018 30.06 847 25.01 32 89.5 11 -1.2 29.8
16:00 1018 30.06 847 25.01 32.2 90 11 -1.1 29.9
16:05 1018 30.06 847 25.01 32.3 90.1 11 -1.3 29.7
16:10 1018 30.06 847 25.01 32 89.6 11 -1.5 29.2
16:15 1018 30.06 847 25.01 31.7 89 11 -2.3 27.8
16:20 1018 30.06 847 25.01 31.7 89.1 11 -2.1 28.3
16:25 1018 30.06 847 25.01 32.2 90 11 -2.1 28.3
16:30 1018 30.06 847 25.01 31.7 89.1 11 -2.1 28.1
16:35 1018 30.06 847 25.01 31.4 88.5 12 -1.4 29.5
16:40 1018 30.06 847 25.01 31.8 89.2 11 -1.7 28.9
16:45 1018 30.06 847 25.01 31.5 88.6 11 -2.2 28.1
16:50 1017 30.03 847 25.01 31.4 88.4 11 -2.8 27
16:55 1017 30.03 847 25.01 31.7 89 12 -1.3 29.6
17:00 1017 30.03 846 24.98 31.8 89.3 11 -1.4 29.6
17:05 1017 30.03 846 24.98 32.1 89.8 11 -1.2 29.8
17:10 1017 30.03 846 24.98 31.3 88.3 11 -2 28.4
17:15 1017 30.03 846 24.98 30.9 87.6 11 -2.1 28.2
17:20 1017 30.03 846 24.98 31 87.8 11 -2.8 27
17:25 1017 30.03 846 24.98 31.2 88.1 11 -3 26.5
17:30 1017 30.03 846 24.98 31.5 88.6 11 -2.6 27.3
17:35 1017 30.03 846 24.98 32.2 90 11 -2.1 28.2
17:40 1017 30.03 846 24.98 32 89.5 12 -0.6 30.9
17:45 1017 30.03 846 24.98 32.3 90.1 11 -2 28.5
17:50 1017 30.03 846 24.98 31.9 89.5 11 -1.8 28.7
17:55 1017 30.03 846 24.98 31.5 88.7 11 -2.1 28.2
18:00 1017 30.03 846 24.98 31.1 88 11 -2.1 28.2
18:05 1017 30.03 846 24.98 31.3 88.3 13 -0.1 31.8
18:10 1017 30.03 846 24.98 31.7 89.1 11 -2.2 28.1
18:15 1017 30.03 846 24.98 31.6 88.8 11 -1.7 29
18:20 1017 30.03 846 24.98 31.2 88.1 11 -2.7 27.2
18:25 1017 30.03 846 24.98 31 87.8 11 -2.2 28
18:30 1017 30.03 846 24.98 30.6 87.2 11 -2.3 27.9
18:35 1017 30.03 846 24.98 30.4 86.8 11 -2.8 27
18:40 1017 30.03 846 24.98 30.4 86.6 11 -3.2 26.2
18:45 1017 30.03 846 24.98 30.3 86.5 11 -2.7 27.1
18:50 1017 30.03 846 24.98 30.2 86.3 12 -1.8 28.8
18:55 1017 30.03 846 24.98 30.1 86.2 12 -1.8 28.7
19:00 1017 30.03 846 24.98 30.1 86.2 12 -2.6 27.3
19:05 1017 30.03 846 24.98 30.1 86.1 12 -1.7 28.9
19:10 1017 30.03 846 24.98 30 85.9 12 -1.7 28.9
19:15 1016 30 846 24.98 29.9 85.8 12 -2.6 27.3
19:20 1016 30 846 24.98 29.8 85.7 12 -2.7 27.1
19:25 1016 30 846 24.98 29.7 85.5 12 -2.2 28
19:30 1016 30 846 24.98 29.6 85.3 12 -2.5 27.5
19:35 1016 30 846 24.98 29.5 85.1 12 -2.1 28.1
19:40 1016 30 845 24.95 29.1 84.4 13 -1.7 28.9
19:45 1016 30 845 24.95 28.9 84 14 -0.8 30.5
19:50 1016 30 845 24.95 28.4 83.1 17 1.6 34.8
19:55 1016 30 845 24.95 27.5 81.4 25 6.2 43.2
20:00 1016 30 845 24.95 26.5 79.7 26 5.5 41.8
20:05 1016 30 845 24.95 25.4 77.8 26 4.5 40.1
20:10 1016 30 845 24.95 24.9 76.7 26 4.3 39.7
20:15 1016 30 845 24.95 24.4 76 26 4.2 39.5
20:20 1016 30 845 24.95 23.9 75 25 2.9 37.2
20:25 1016 30 845 24.95 23.9 75 27 4.2 39.6
20:30 1016 30 845 24.95 23.7 74.6 22 1.1 34
20:35 1016 30 845 24.95 24 75.1 22 1 33.7
20:40 1016 30 845 24.95 24.1 75.3 22 1 33.8
20:45 1016 30 845 24.95 23.7 74.7 21 0.1 32.2
20:50 1016 30 845 24.95 23.5 74.2 22 0.7 33.3
20:55 1016 30 845 24.95 23 73.5 22 0.6 33
21:00 1016 30 846 24.98 22.7 72.9 21 -0.5 31.2
21:05 1016 30 846 24.98 22.8 73 26 2.6 36.8
21:10 1016 30 846 24.98 22.7 72.8 23 0.4 32.7
21:15 1016 30 845 24.95 22.5 72.4 26 2 35.6
21:20 1016 30 846 24.98 22.3 72.2 21 -1.1 30
21:25 1016 30 846 24.98 22.7 72.8 28 3.3 37.9
21:30 1016 30 846 24.98 22.8 73.1 20 -1 30.2
21:35 1016 30 846 24.98 22.9 73.2 20 -1.3 29.7
21:40 1016 30 846 24.98 22.9 73.3 19 -1.6 29.1
21:45 1016 30 846 24.98 23 73.4 21 -0.4 31.3
21:50 1016 30 845 24.95 23.7 74.6 16 -3.2 26.3
21:55 1016 30 845 24.95 24.2 75.6 17 -2.5 27.6
22:00 1016 30 845 24.95 24.2 75.6 16 -2.9 26.7
22:05 1016 30 846 24.98 23.7 74.7 19 -1.2 29.8
22:10 1016 30 845 24.95 22.8 73 20 -1 30.3
22:15 1016 30 845 24.95 22.3 72.2 22 0 32.1
22:20 1016 30 845 24.95 22.3 72.1 20 -1.7 28.9
22:25 1016 30 845 24.95 22.3 72.1 23 0.4 32.8
22:30 1016 30 845 24.95 22.2 71.9 20 -1.5 29.4
22:35 1016 30 845 24.95 22.4 72.3 20 -1.7 28.9
22:40 1016 30 845 24.95 22.1 71.8 21 -1 30.1
22:45 1016 30 845 24.95 21.8 71.2 20 -1.7 29
22:50 1016 30 845 24.95 21.8 71.3 20 -1.9 28.5
22:55 1016 30 845 24.95 21.8 71.2 20 -1.8 28.8
23:00 1016 30 845 24.95 21.7 71 21 -1.1 30
23:05 1016 30 845 24.95 21.7 71 20 -2 28.5
23:10 1016 30 845 24.95 21.7 71 21 -1.3 29.6
23:15 1016 30 845 24.95 21.4 70.4 24 0.2 32.3
23:20 1016 30 845 24.95 21.5 70.6 20 -2.1 28.1
23:25 1016 30 845 24.95 22 71.5 19 -2.2 28.1
23:30 1016 30 845 24.95 22 71.6 22 -0.2 31.6
23:35 1016 30 845 24.95 21.5 70.7 23 -0.4 31.2
23:40 1016 30 845 24.95 21.6 70.8 20 -2 28.3
23:45 1016 30 845 24.95 22.2 72 19 -2.2 28.1
23:50 1016 30 845 24.95 22 71.6 23 -0.1 31.9
23:55 1016 30 845 24.95 21.3 70.3 21 -1.6 29.1
24:00 1016 30 845 24.95 21.5 70.7 21 -1.3 29.7